createdAt,value
2022-08-23T00:00:00.918Z,3.15
2022-08-23T00:02:33.066Z,3.13
2022-08-23T00:05:08.791Z,3.10
2022-08-23T00:07:38.435Z,3.47
2022-08-23T00:10:05.173Z,3.08
2022-08-23T00:12:31.576Z,3.34
2022-08-23T00:15:01.364Z,3.08
2022-08-23T00:17:34.236Z,3.15
2022-08-23T00:20:01.210Z,3.21
2022-08-23T00:22:27.620Z,3.18
2022-08-23T00:24:54.009Z,3.33
2022-08-23T00:27:20.374Z,3.42
2022-08-23T00:29:46.757Z,3.38
2022-08-23T00:32:13.126Z,3.23
2022-08-23T00:34:39.537Z,3.17
2022-08-23T00:37:05.970Z,3.32
2022-08-23T00:39:32.352Z,3.03
2022-08-23T00:41:58.742Z,3.22
2022-08-23T00:44:25.116Z,3.18
2022-08-23T00:46:51.568Z,3.41
2022-08-23T00:49:17.949Z,3.25
2022-08-23T00:51:52.947Z,3.24
2022-08-23T00:54:19.861Z,3.25
2022-08-23T00:56:46.249Z,3.17
2022-08-23T00:59:12.627Z,3.29
2022-08-23T01:01:39.093Z,3.41
2022-08-23T01:04:05.579Z,3.20
2022-08-23T01:06:31.952Z,3.45
2022-08-23T01:08:58.362Z,3.23
2022-08-23T01:11:24.731Z,3.24
2022-08-23T01:13:51.129Z,3.28
2022-08-23T01:16:17.533Z,3.52
2022-08-23T01:18:44.033Z,3.56
2022-08-23T01:21:10.718Z,3.36
2022-08-23T01:23:37.164Z,3.42
2022-08-23T01:26:03.588Z,3.28
2022-08-23T01:28:29.978Z,3.25
2022-08-23T01:30:56.362Z,3.42
2022-08-23T01:33:22.865Z,3.34
2022-08-23T01:35:49.695Z,3.85
2022-08-23T01:38:16.087Z,3.35
2022-08-23T01:40:42.479Z,3.42
2022-08-23T01:43:08.852Z,3.48
2022-08-23T01:45:35.265Z,3.10
2022-08-23T01:48:01.949Z,3.51
2022-08-23T01:50:28.618Z,3.63
2022-08-23T01:52:55.070Z,3.32
2022-08-23T01:55:21.464Z,3.62
2022-08-23T01:57:48.485Z,3.48
2022-08-23T02:00:16.030Z,3.43
2022-08-23T02:02:42.416Z,3.70
2022-08-23T02:05:08.794Z,3.48
2022-08-23T02:07:35.203Z,3.40
2022-08-23T02:10:01.585Z,3.43
2022-08-23T02:12:29.215Z,3.25
2022-08-23T02:14:55.634Z,3.29
2022-08-23T02:17:22.047Z,3.32
2022-08-23T02:19:48.438Z,3.43
2022-08-23T02:22:14.854Z,3.43
2022-08-23T02:24:41.249Z,3.41
2022-08-23T02:27:07.644Z,3.29
2022-08-23T02:29:34.041Z,3.39
2022-08-23T02:32:05.693Z,3.53
2022-08-23T02:34:32.113Z,3.38
2022-08-23T02:36:58.499Z,3.51
2022-08-23T02:39:24.872Z,3.50
2022-08-23T02:41:51.256Z,3.62
2022-08-23T02:44:17.626Z,3.40
2022-08-23T02:46:44.054Z,3.43
2022-08-23T02:49:10.469Z,3.57
2022-08-23T02:51:36.839Z,3.32
2022-08-23T02:54:03.249Z,3.40
2022-08-23T02:56:29.612Z,3.36
2022-08-23T02:58:56.033Z,3.26
2022-08-23T03:01:22.446Z,3.35
2022-08-23T03:03:48.812Z,3.40
2022-08-23T03:06:25.727Z,3.52
2022-08-23T03:08:52.652Z,3.50
2022-08-23T03:11:19.053Z,3.50
2022-08-23T03:13:45.456Z,3.34
2022-08-23T03:16:11.854Z,3.22
2022-08-23T03:18:38.234Z,3.42
2022-08-23T03:21:04.674Z,3.46
2022-08-23T03:23:31.064Z,3.06
2022-08-23T03:25:57.434Z,3.53
2022-08-23T03:28:23.826Z,3.88
2022-08-23T03:30:50.205Z,3.60
2022-08-23T03:33:16.619Z,3.74
2022-08-23T03:35:43.016Z,3.72
2022-08-23T03:38:09.423Z,3.50
2022-08-23T03:40:36.737Z,3.63
2022-08-23T03:43:03.126Z,3.77
2022-08-23T03:45:29.498Z,3.72
2022-08-23T03:47:55.964Z,3.96
2022-08-23T03:50:22.428Z,3.65
2022-08-23T03:52:48.820Z,3.90
2022-08-23T03:55:15.198Z,3.72
2022-08-23T03:57:41.590Z,3.74
2022-08-23T04:00:07.971Z,3.71
2022-08-23T04:02:34.432Z,3.74
2022-08-23T04:05:00.815Z,3.48
2022-08-23T04:07:27.261Z,3.67
2022-08-23T04:09:55.293Z,3.56
2022-08-23T04:12:21.902Z,3.40
2022-08-23T04:14:48.301Z,3.61
2022-08-23T04:17:14.671Z,4.02
2022-08-23T04:19:41.065Z,3.69
2022-08-23T04:22:07.807Z,3.74
2022-08-23T04:24:34.204Z,3.78
2022-08-23T04:27:00.625Z,3.41
2022-08-23T04:29:33.977Z,3.62
2022-08-23T04:32:00.958Z,3.82
2022-08-23T04:34:28.797Z,3.70
2022-08-23T04:36:55.532Z,3.84
2022-08-23T04:39:21.970Z,3.81
2022-08-23T04:41:48.345Z,3.99
2022-08-23T04:44:15.233Z,4.37
2022-08-23T04:46:41.633Z,4.72
2022-08-23T04:49:08.245Z,4.10
2022-08-23T04:51:34.677Z,3.90
2022-08-23T04:54:01.075Z,3.56
2022-08-23T04:56:27.474Z,4.59
2022-08-23T04:58:53.875Z,4.39
2022-08-23T05:01:20.353Z,4.04
2022-08-23T05:03:46.759Z,4.33
2022-08-23T05:06:13.164Z,3.92
2022-08-23T05:08:39.584Z,4.17
2022-08-23T05:11:05.967Z,4.15
2022-08-23T05:13:32.812Z,3.99
2022-08-23T05:16:01.330Z,4.31
2022-08-23T05:18:27.777Z,4.67
2022-08-23T05:20:54.158Z,4.11
2022-08-23T05:23:20.593Z,3.83
2022-08-23T05:25:53.238Z,4.17
2022-08-23T05:28:19.884Z,3.75
2022-08-23T05:30:49.466Z,4.09
2022-08-23T05:33:23.017Z,3.81
2022-08-23T05:35:49.446Z,3.90
2022-08-23T05:38:18.965Z,4.05
2022-08-23T05:40:47.108Z,4.26
2022-08-23T05:43:19.087Z,4.37
2022-08-23T05:45:45.492Z,4.10
2022-08-23T05:48:14.857Z,3.84
2022-08-23T05:50:44.740Z,3.62
2022-08-23T05:53:11.189Z,4.13
2022-08-23T05:55:37.645Z,4.00
2022-08-23T05:58:04.042Z,4.15
2022-08-23T06:00:38.079Z,4.06
2022-08-23T06:03:07.279Z,4.41
2022-08-23T06:05:33.686Z,4.31
2022-08-23T06:08:00.193Z,4.14
2022-08-23T06:10:26.724Z,3.93
2022-08-23T06:12:53.132Z,3.86
2022-08-23T06:15:19.523Z,3.75
2022-08-23T06:17:45.917Z,3.92
2022-08-23T06:20:12.309Z,4.14
2022-08-23T06:22:38.822Z,3.87
2022-08-23T06:25:09.134Z,4.07
2022-08-23T06:27:37.208Z,4.18
2022-08-23T06:30:03.591Z,4.13
2022-08-23T06:32:30.048Z,4.02
2022-08-23T06:35:27.800Z,4.30
2022-08-23T06:37:42.933Z,4.20
2022-08-23T06:40:12.191Z,4.29
2022-08-23T06:42:40.692Z,4.36
2022-08-23T06:45:07.059Z,4.58
2022-08-23T06:47:33.473Z,4.50
2022-08-23T06:49:59.851Z,4.54
2022-08-23T06:52:26.258Z,4.87
2022-08-23T06:54:52.648Z,4.81
2022-08-23T06:57:19.700Z,5.26
2022-08-23T06:59:46.077Z,5.04
2022-08-23T07:02:12.591Z,5.04
2022-08-23T07:04:39.064Z,5.11
2022-08-23T07:07:10.732Z,5.15
2022-08-23T07:09:40.227Z,4.95
2022-08-23T07:12:06.647Z,5.29
2022-08-23T07:14:33.052Z,5.13
2022-08-23T07:16:59.448Z,5.41
2022-08-23T07:19:29.293Z,4.83
2022-08-23T07:21:55.965Z,4.54
2022-08-23T07:24:22.377Z,4.71
2022-08-23T07:26:48.748Z,4.66
2022-08-23T07:29:15.146Z,4.63
2022-08-23T07:31:41.557Z,4.37
2022-08-23T07:34:07.990Z,4.50
2022-08-23T07:36:34.363Z,4.83
2022-08-23T07:39:00.750Z,5.43
2022-08-23T07:41:27.135Z,5.55
2022-08-23T07:43:53.553Z,4.85
2022-08-23T07:46:20.010Z,4.84
2022-08-23T07:48:54.931Z,4.80
2022-08-23T07:51:21.531Z,4.61
2022-08-23T07:53:47.922Z,4.86
2022-08-23T07:56:14.335Z,4.86
2022-08-23T07:58:40.708Z,4.55
2022-08-23T08:01:07.135Z,4.65
2022-08-23T08:03:33.514Z,4.79
2022-08-23T08:05:59.918Z,4.48
2022-08-23T08:08:26.360Z,4.55
2022-08-23T08:10:52.757Z,4.50
2022-08-23T08:13:19.152Z,4.91
2022-08-23T08:15:46.709Z,4.41
2022-08-23T08:18:13.704Z,4.31
2022-08-23T08:20:40.080Z,4.37
2022-08-23T08:23:06.473Z,4.42
2022-08-23T08:25:32.851Z,4.57
2022-08-23T08:27:59.269Z,4.54
2022-08-23T08:30:26.180Z,4.65
2022-08-23T08:32:52.707Z,4.09
2022-08-23T08:35:19.109Z,4.16
2022-08-23T08:37:45.645Z,3.83
2022-08-23T08:40:15.258Z,4.14
2022-08-23T08:42:41.684Z,4.18
2022-08-23T08:45:08.078Z,4.12
2022-08-23T08:47:34.490Z,4.25
2022-08-23T08:50:00.904Z,4.29
2022-08-23T08:52:27.807Z,4.17
2022-08-23T08:54:58.757Z,4.02
2022-08-23T08:57:27.352Z,4.10
2022-08-23T08:59:54.202Z,4.11
2022-08-23T09:02:32.294Z,4.14
2022-08-23T09:04:59.303Z,4.22
2022-08-23T09:07:30.977Z,4.20
2022-08-23T09:09:57.691Z,4.46
2022-08-23T09:12:24.108Z,4.18
2022-08-23T09:14:50.517Z,4.37
2022-08-23T09:17:16.925Z,4.30
2022-08-23T09:19:43.300Z,4.16
2022-08-23T09:22:09.693Z,4.58
2022-08-23T09:24:36.076Z,4.49
2022-08-23T09:27:03.053Z,4.77
2022-08-23T09:29:29.478Z,4.36
2022-08-23T09:31:55.895Z,4.37
2022-08-23T09:34:22.289Z,4.63
2022-08-23T09:36:48.693Z,4.34
2022-08-23T09:39:15.082Z,4.43
2022-08-23T09:41:42.654Z,4.35
2022-08-23T09:44:09.033Z,4.43
2022-08-23T09:46:35.895Z,4.62
2022-08-23T09:49:02.381Z,4.71
2022-08-23T09:51:28.775Z,4.48
2022-08-23T09:53:56.973Z,4.40
2022-08-23T09:56:23.346Z,4.60
2022-08-23T09:58:49.775Z,4.39
2022-08-23T10:01:16.311Z,4.55
2022-08-23T10:03:42.778Z,4.52
2022-08-23T10:06:09.177Z,4.77
2022-08-23T10:08:38.482Z,4.21
2022-08-23T10:11:11.318Z,4.18
2022-08-23T10:13:38.332Z,4.47
2022-08-23T10:16:04.782Z,4.19
2022-08-23T10:18:31.243Z,4.30
2022-08-23T10:20:57.625Z,4.47
2022-08-23T10:23:24.027Z,4.17
2022-08-23T10:25:50.419Z,4.04
2022-08-23T10:28:16.783Z,3.90
2022-08-23T10:30:43.222Z,3.82
2022-08-23T10:33:09.662Z,4.31
2022-08-23T10:35:40.757Z,3.97
2022-08-23T10:38:07.145Z,3.91
2022-08-23T10:40:33.665Z,3.97
2022-08-23T10:43:00.134Z,3.74
2022-08-23T10:45:26.514Z,4.00
2022-08-23T10:47:52.898Z,3.85
2022-08-23T10:50:19.333Z,3.74
2022-08-23T10:52:45.733Z,3.65
2022-08-23T10:55:12.149Z,3.37
2022-08-23T10:57:38.596Z,3.38
2022-08-23T11:00:04.980Z,3.79
2022-08-23T11:02:31.396Z,3.70
2022-08-23T11:04:57.812Z,3.47
2022-08-23T11:07:24.183Z,3.49
2022-08-23T11:09:50.977Z,3.80
2022-08-23T11:12:17.478Z,3.68
2022-08-23T11:14:43.882Z,3.82
2022-08-23T11:17:10.302Z,3.83
2022-08-23T11:19:39.007Z,4.12
2022-08-23T11:22:05.408Z,3.74
2022-08-23T11:24:31.794Z,3.46
2022-08-23T11:26:59.317Z,3.51
2022-08-23T11:29:28.070Z,3.35
2022-08-23T11:31:54.530Z,3.51
2022-08-23T11:34:21.017Z,3.75
2022-08-23T11:36:52.201Z,3.59
2022-08-23T11:39:20.537Z,3.66
2022-08-23T11:41:51.949Z,3.77
2022-08-23T11:44:18.378Z,3.81
2022-08-23T11:46:44.758Z,3.76
2022-08-23T11:49:11.166Z,3.88
2022-08-23T11:51:37.597Z,3.76
2022-08-23T11:54:03.991Z,3.86
2022-08-23T11:56:30.369Z,3.97
2022-08-23T11:58:57.788Z,3.89
2022-08-23T12:01:24.169Z,3.73
2022-08-23T12:03:50.672Z,3.71
2022-08-23T12:06:17.205Z,4.02
2022-08-23T12:08:43.962Z,4.05
2022-08-23T12:11:10.368Z,4.01
2022-08-23T12:13:36.740Z,4.30
2022-08-23T12:16:03.211Z,3.86
2022-08-23T12:18:29.787Z,3.73
2022-08-23T12:20:56.151Z,3.89
2022-08-23T12:23:23.546Z,4.13
2022-08-23T12:25:49.919Z,4.06
2022-08-23T12:28:16.322Z,4.24
2022-08-23T12:30:44.350Z,4.05
2022-08-23T12:33:10.876Z,4.15
2022-08-23T12:35:37.262Z,4.39
2022-08-23T12:38:03.800Z,4.12
2022-08-23T12:40:30.332Z,4.08
2022-08-23T12:42:56.796Z,3.71
2022-08-23T12:45:23.196Z,3.96
2022-08-23T12:47:49.585Z,3.99
2022-08-23T12:50:15.989Z,3.90
2022-08-23T12:52:42.368Z,3.87
2022-08-23T12:55:08.765Z,3.82
2022-08-23T12:57:39.741Z,3.88
2022-08-23T13:00:18.826Z,3.74
2022-08-23T13:02:45.471Z,3.79
2022-08-23T13:05:13.599Z,3.94
2022-08-23T13:07:40.085Z,3.69
2022-08-23T13:10:06.468Z,3.59
2022-08-23T13:12:32.870Z,3.82
2022-08-23T13:14:59.267Z,3.76
2022-08-23T13:17:25.670Z,3.47
2022-08-23T13:19:52.058Z,3.76
2022-08-23T13:22:19.655Z,3.79
2022-08-23T13:24:46.074Z,3.81
2022-08-23T13:27:12.475Z,3.78
2022-08-23T13:29:38.870Z,3.89
2022-08-23T13:32:05.805Z,3.59
2022-08-23T13:34:33.231Z,3.62
2022-08-23T13:36:59.666Z,3.60
2022-08-23T13:39:26.066Z,3.49
2022-08-23T13:41:52.472Z,3.61
2022-08-23T13:44:19.777Z,3.55
2022-08-23T13:46:46.233Z,4.88
2022-08-23T13:49:12.696Z,4.22
2022-08-23T13:51:39.111Z,3.59
2022-08-23T13:54:05.504Z,3.65
2022-08-23T13:56:31.905Z,3.36
2022-08-23T13:58:58.289Z,3.33
2022-08-23T14:01:24.692Z,3.49
2022-08-23T14:03:51.193Z,3.37
2022-08-23T14:06:17.610Z,3.42
2022-08-23T14:08:44.024Z,3.35
2022-08-23T14:11:10.421Z,3.18
2022-08-23T14:13:36.838Z,3.10
2022-08-23T14:21:36.001Z,3.23
2022-08-23T14:24:02.419Z,3.04
2022-08-23T14:26:28.830Z,3.16
2022-08-23T14:28:55.231Z,3.04
2022-08-23T14:31:21.670Z,3.34
2022-08-23T14:33:48.067Z,3.36
2022-08-23T14:36:14.456Z,3.36
2022-08-23T14:38:41.585Z,3.20
2022-08-23T14:41:08.012Z,3.31
2022-08-23T14:43:34.439Z,3.05
2022-08-23T14:46:00.878Z,3.14
2022-08-23T14:48:27.380Z,2.91
2022-08-23T14:50:53.754Z,3.20
2022-08-23T14:53:20.303Z,3.20
2022-08-23T14:55:46.738Z,3.23
2022-08-23T14:58:13.122Z,3.24
2022-08-23T15:00:39.517Z,3.29
2022-08-23T15:03:09.665Z,3.05
2022-08-23T15:05:36.483Z,3.16
2022-08-23T15:08:02.875Z,3.20
2022-08-23T15:13:22.909Z,5.12
2022-08-23T15:15:55.069Z,3.50
2022-08-23T15:18:21.437Z,3.07
2022-08-23T15:20:47.832Z,3.16
2022-08-23T15:23:14.313Z,2.97
2022-08-23T15:25:40.697Z,2.93
2022-08-23T15:28:12.202Z,3.34
2022-08-23T15:30:39.394Z,3.10
2022-08-23T15:33:06.069Z,3.08
2022-08-23T15:35:36.520Z,3.19
2022-08-23T15:38:05.579Z,3.22
2022-08-23T15:40:32.060Z,2.97
2022-08-23T15:42:58.547Z,3.11
2022-08-23T15:45:24.945Z,2.96
2022-08-23T15:47:51.577Z,3.01
2022-08-23T15:50:18.198Z,3.14
2022-08-23T15:52:44.594Z,2.99
2022-08-23T15:55:11.852Z,3.04
2022-08-23T15:57:38.242Z,3.08
2022-08-23T16:00:04.675Z,2.91
2022-08-23T16:02:45.719Z,2.88
2022-08-23T16:05:17.437Z,2.71
2022-08-23T16:07:43.828Z,2.97
2022-08-23T16:10:10.262Z,2.83
2022-08-23T16:12:36.653Z,3.11
2022-08-23T16:15:03.067Z,2.83
2022-08-23T16:17:29.462Z,2.79
2022-08-23T16:19:55.853Z,2.95
2022-08-23T16:22:22.233Z,2.79
2022-08-23T16:24:48.613Z,2.97
2022-08-23T16:27:15.026Z,3.14
2022-08-23T16:29:41.410Z,2.79
2022-08-23T16:32:07.790Z,2.89
2022-08-23T16:34:34.177Z,2.81
2022-08-23T16:37:00.572Z,3.08
2022-08-23T16:39:26.953Z,2.74
2022-08-23T16:41:53.390Z,2.90
2022-08-23T16:44:19.787Z,3.27
2022-08-23T16:46:46.162Z,3.33
2022-08-23T16:49:12.562Z,3.30
2022-08-23T16:51:38.956Z,3.18
2022-08-23T16:54:05.358Z,3.42
2022-08-23T16:56:31.868Z,3.40
2022-08-23T16:58:58.320Z,3.24
2022-08-23T17:01:24.836Z,3.16
2022-08-23T17:03:51.272Z,3.18
2022-08-23T17:06:17.667Z,3.09
2022-08-23T17:08:44.112Z,3.13
2022-08-23T17:11:10.538Z,2.94
2022-08-23T17:13:36.912Z,3.44
2022-08-23T17:16:03.305Z,3.23
2022-08-23T17:18:32.433Z,3.20
2022-08-23T17:20:58.843Z,2.95
2022-08-23T17:23:25.225Z,3.63
2022-08-23T17:25:51.613Z,3.52
2022-08-23T17:28:18.062Z,2.95
2022-08-23T17:30:44.474Z,3.07
2022-08-23T17:33:10.851Z,2.98
2022-08-23T17:35:39.016Z,3.29
2022-08-23T17:38:05.399Z,3.66
2022-08-23T17:40:31.810Z,3.25
2022-08-23T17:42:58.299Z,3.06
2022-08-23T17:45:24.697Z,3.26
2022-08-23T17:47:51.129Z,3.21
2022-08-23T17:50:17.515Z,2.78
2022-08-23T17:52:43.926Z,3.00
2022-08-23T17:55:10.821Z,3.14
2022-08-23T17:57:37.293Z,3.21
2022-08-23T18:00:03.852Z,2.84
2022-08-23T18:02:31.343Z,3.10
2022-08-23T18:04:57.800Z,3.10
2022-08-23T18:07:24.225Z,3.12
2022-08-23T18:09:50.653Z,2.87
2022-08-23T18:12:17.044Z,2.85
2022-08-23T18:14:43.432Z,3.00
2022-08-23T18:17:09.834Z,3.10
2022-08-23T18:19:36.229Z,3.00
2022-08-23T18:22:02.824Z,2.79
2022-08-23T18:24:29.294Z,3.42
2022-08-23T18:26:55.692Z,2.95
2022-08-23T18:29:22.402Z,3.06
2022-08-23T18:31:48.947Z,3.21
2022-08-23T18:34:17.109Z,2.93
2022-08-23T18:36:43.504Z,3.17
2022-08-23T18:39:09.888Z,3.09
2022-08-23T18:41:36.294Z,3.07
2022-08-23T18:44:05.406Z,3.02
2022-08-23T18:46:33.728Z,2.99
2022-08-23T18:49:00.258Z,3.05
2022-08-23T18:51:26.666Z,3.06
2022-08-23T18:53:56.129Z,3.05
2022-08-23T18:56:22.514Z,2.90
2022-08-23T18:58:48.948Z,3.03
2022-08-23T19:01:15.496Z,2.88
2022-08-23T19:03:41.986Z,2.88
2022-08-23T19:06:08.378Z,3.45
2022-08-23T19:08:34.748Z,3.03
2022-08-23T19:11:01.142Z,3.12
2022-08-23T19:13:27.532Z,3.08
2022-08-23T19:15:53.933Z,3.06
2022-08-23T19:18:20.311Z,3.09
2022-08-23T19:20:46.706Z,3.09
2022-08-23T19:23:13.092Z,2.83
2022-08-23T19:25:39.496Z,2.74
2022-08-23T19:28:05.893Z,2.97
2022-08-23T19:30:32.292Z,2.79
2022-08-23T19:32:59.601Z,2.79
2022-08-23T19:35:25.999Z,2.90
2022-08-23T19:37:52.406Z,2.77
2022-08-23T19:40:18.851Z,2.72
2022-08-23T19:42:45.329Z,2.55
2022-08-23T19:45:11.715Z,2.86
2022-08-23T19:47:38.161Z,2.80
2022-08-23T19:50:04.534Z,2.98
2022-08-23T19:52:31.287Z,2.83
2022-08-23T19:55:05.135Z,2.80
2022-08-23T19:57:35.254Z,2.92
2022-08-23T20:00:01.685Z,2.92
2022-08-23T20:02:28.139Z,3.65
2022-08-23T20:04:54.925Z,3.91
2022-08-23T20:07:21.396Z,3.04
2022-08-23T20:09:47.789Z,2.94
2022-08-23T20:12:14.183Z,3.37
2022-08-23T20:14:40.559Z,3.96
2022-08-23T20:17:06.961Z,4.17
2022-08-23T20:19:36.099Z,3.09
2022-08-23T20:22:02.518Z,3.27
2022-08-23T20:24:48.668Z,2.93
2022-08-23T20:27:27.816Z,2.70
2022-08-23T20:29:57.353Z,2.88
2022-08-23T20:32:23.751Z,2.70
2022-08-23T20:34:50.124Z,2.84
2022-08-23T20:37:16.502Z,2.90
2022-08-23T20:39:42.912Z,2.98
2022-08-23T20:42:09.307Z,2.80
2022-08-23T20:44:35.717Z,2.80
2022-08-23T20:47:03.180Z,2.84
2022-08-23T20:49:29.846Z,2.75
2022-08-23T20:51:56.220Z,2.99
2022-08-23T20:54:22.612Z,2.76
2022-08-23T20:56:49.015Z,2.95
2022-08-23T20:59:15.388Z,3.35
2022-08-23T21:01:41.969Z,3.00
2022-08-23T21:04:08.404Z,3.02
2022-08-23T21:06:34.786Z,2.74
2022-08-23T21:09:01.929Z,2.84
2022-08-23T21:11:28.309Z,3.10
2022-08-23T21:13:54.723Z,3.03
2022-08-23T21:16:21.363Z,2.74
2022-08-23T21:18:47.831Z,2.93
2022-08-23T21:21:16.021Z,2.73
2022-08-23T21:23:44.097Z,2.80
2022-08-23T21:26:10.463Z,2.90
2022-08-23T21:28:36.851Z,2.86
2022-08-23T21:31:03.298Z,2.85
2022-08-23T21:33:29.707Z,2.75
2022-08-23T21:35:56.107Z,2.75
2022-08-23T21:38:22.473Z,3.88
2022-08-23T21:40:49.025Z,4.45
2022-08-23T21:43:15.402Z,3.08
2022-08-23T21:45:41.802Z,3.08
2022-08-23T21:48:09.694Z,3.25
2022-08-23T21:50:36.078Z,3.10
2022-08-23T21:53:02.463Z,3.09
2022-08-23T21:55:36.052Z,2.89
2022-08-23T21:58:03.600Z,3.04
2022-08-23T22:00:31.009Z,3.09
2022-08-23T22:02:57.480Z,2.95
2022-08-23T22:05:23.973Z,3.10
2022-08-23T22:07:50.364Z,3.31
2022-08-23T22:10:16.761Z,3.17
2022-08-23T22:12:43.127Z,3.01
2022-08-23T22:15:09.520Z,3.03
2022-08-23T22:17:35.890Z,3.11
2022-08-23T22:20:02.301Z,3.06
2022-08-23T22:22:28.803Z,3.23
2022-08-23T22:24:55.180Z,2.87
2022-08-23T22:27:21.570Z,3.17
2022-08-23T22:29:47.980Z,2.99
2022-08-23T22:32:14.369Z,2.94
2022-08-23T22:34:40.752Z,3.05
2022-08-23T22:37:07.140Z,3.01
2022-08-23T22:39:33.522Z,2.94
2022-08-23T22:42:00.000Z,3.02
2022-08-23T22:44:26.367Z,2.97
2022-08-23T22:46:52.746Z,3.32
2022-08-23T22:49:19.124Z,2.90
2022-08-23T22:51:45.522Z,3.21
2022-08-23T22:54:11.899Z,3.24
2022-08-23T22:56:38.304Z,3.26
2022-08-23T22:59:04.698Z,3.56
2022-08-23T23:01:31.090Z,3.70
2022-08-23T23:03:57.693Z,3.26
2022-08-23T23:06:24.105Z,3.05
2022-08-23T23:08:50.489Z,3.17
2022-08-23T23:11:16.851Z,3.18
2022-08-23T23:13:43.237Z,3.30
2022-08-23T23:16:09.620Z,3.14
2022-08-23T23:18:35.996Z,2.96
2022-08-23T23:21:02.387Z,3.16
2022-08-23T23:23:28.786Z,3.08
2022-08-23T23:25:55.166Z,2.98
2022-08-23T23:28:21.558Z,3.01
2022-08-23T23:30:47.991Z,3.12
2022-08-23T23:33:14.421Z,3.41
2022-08-23T23:35:40.822Z,3.25
2022-08-23T23:38:07.194Z,3.29
2022-08-23T23:40:33.562Z,3.06
2022-08-23T23:42:59.950Z,3.00
2022-08-23T23:45:26.366Z,3.18
2022-08-23T23:47:52.756Z,3.52
2022-08-23T23:50:19.138Z,3.08
2022-08-23T23:52:45.555Z,3.13
2022-08-23T23:55:11.948Z,3.23
2022-08-23T23:57:38.318Z,3.07
